Evaline, Washington
Current Conditions -  °F | °C
As of 1:55 AM on Friday 19 Dec 2014 (Local Time) from KCLS Reporting Station
Overcast Overcast  
Wind Chill: 44°   Ceiling: 7500
Heat Index: 48°   Visibility: 10mi
Dew Point: 46°   Wind: 10mph
Humidity: 93%   Direction: 180°S
Pressure: 29.82"   Gusts: NA
Location:  46.4964°N, 122.927°W
Report Text: KCLS 190955Z AUTO 18009KT 140V200 10SM FEW043 SCT065 OVC075 09/08 A2982 RMK AO2
Loading
Personal Weather Stations






























Interactive Weather Map New forecast layout! Learn more

10-Day Weather Forecast

Advertisements
Track Severe Weather on mobile